Upcoming Events

Christmas Cookie Swap  December 11, 2021 21:00z
VATCAN Online  December 19, 2021 21:00z

  Top Controllers this Month

Kris McCamis 1540069

Cooper 1473486

Tony Koch 1106668

James Braun 1492868

Thomas Smith 1505007

  Online Controllers

CYEG_TWR on 118.300

  View Our Airspace

  Weather

CYYC - Calgary International Airport   VFR
CYYC 062000Z 35010KT 40SM FEW060 M08/M12 A2983 RMK SC2 SLP182

CYEG - Edmonton International Airport   VFR
CYEG 062000Z 29006KT 20SM FEW220 M11/M17 A2988 RMK CI1 CI TR SLP179

CYXY - Whitehorse / Erik Nielsen International Airport   VFR
CYXY 062000Z 14008G15KT 40SM DRSN FEW008 FEW060 OVC140 M19/M22 A2974 RMK SF1SC1AC7 SF TR SLP149

CYZF - Yellowknife International Airport   VFR
CYZF 062000Z 07005KT 15SM FEW010 BKN067 BKN080 M28/M31 A2989 RMK SC1AC6AC1 SC TR AC TR SLP159

CYMM - Fort McMurray Airport   VFR
CYMM 062000Z AUTO 08005KT 9SM CLR M22/M26 A2986 RMK SLP160

CYQF - Red Deer Regional Airport   VFR
CYQF 062000Z AUTO 24007KT 9SM CLR M10/M15 A2985 RMK SLP185

CZVL - Edmonton / Villeneuve Airport   VFR
CZVL 062000Z AUTO 30008KT 9SM CLR M10/M17 A2987 RMK SLP170

CYBW - Calgary / Springbank Airport   VFR
CYBW 062000Z AUTO 34007KT 9SM FEW060 M09/M12 A2981 RMK SLP191

CYOD - CFB Cold Lake   VFR
CYOD 062000Z 00000KT 15SM FEW180 M22/M26 A2989 RMK AC1 DA-2862FT SLP184